createdAt,value
2019-02-14T00:00:25.728Z,35.38
2019-02-14T00:03:14.932Z,28.25
2019-02-14T00:06:03.676Z,40.83
2019-02-14T00:08:52.941Z,31.55
2019-02-14T00:11:42.833Z,28.07
2019-02-14T00:14:31.834Z,35.60
2019-02-14T00:17:21.677Z,33.33
2019-02-14T00:20:11.779Z,31.87
2019-02-14T00:23:00.728Z,31.93
2019-02-14T00:25:50.096Z,30.90
2019-02-14T00:28:39.182Z,31.65
2019-02-14T00:31:28.637Z,34.58
2019-02-14T00:34:18.213Z,31.20
2019-02-14T00:37:07.285Z,36.15
2019-02-14T00:39:56.592Z,36.48
2019-02-14T00:42:45.719Z,31.73
2019-02-14T00:45:34.833Z,33.67
2019-02-14T00:48:23.261Z,35.48
2019-02-14T00:51:13.016Z,44.23
2019-02-14T00:54:01.834Z,36.93
2019-02-14T00:56:51.039Z,40.20
2019-02-14T00:59:40.295Z,34.27
2019-02-14T01:02:29.787Z,37.67
2019-02-14T01:05:18.511Z,38.55
2019-02-14T01:08:07.466Z,34.85
2019-02-14T01:10:56.415Z,36.70
2019-02-14T01:13:45.429Z,40.10
2019-02-14T01:16:34.595Z,40.58
2019-02-14T01:19:23.861Z,43.60
2019-02-14T01:22:13.339Z,42.05
2019-02-14T01:25:02.658Z,40.43
2019-02-14T01:27:51.779Z,42.20
2019-02-14T01:30:41.043Z,41.83
2019-02-14T01:33:30.407Z,43.92
2019-02-14T01:36:19.692Z,43.08
2019-02-14T01:39:08.659Z,46.23
2019-02-14T01:41:58.327Z,45.48
2019-02-14T01:44:46.796Z,45.95
2019-02-14T01:47:35.644Z,45.03
2019-02-14T01:50:24.739Z,42.65
2019-02-14T01:53:14.072Z,48.98
2019-02-14T01:56:03.655Z,45.83
2019-02-14T01:58:52.108Z,44.05
2019-02-14T02:01:40.860Z,47.23
2019-02-14T02:04:29.428Z,45.08
2019-02-14T02:07:18.678Z,45.65
2019-02-14T02:10:11.812Z,44.55
2019-02-14T02:13:00.799Z,45.90
2019-02-14T02:15:49.724Z,52.15
2019-02-14T02:18:39.736Z,40.10
2019-02-14T02:21:29.223Z,53.33
2019-02-14T02:24:18.499Z,50.00
2019-02-14T02:27:07.353Z,45.52
2019-02-14T02:29:56.724Z,49.73
2019-02-14T02:32:45.590Z,55.70
2019-02-14T02:35:34.696Z,48.90
2019-02-14T02:38:23.713Z,49.67
2019-02-14T02:41:12.985Z,49.73
2019-02-14T02:44:02.544Z,43.58
2019-02-14T02:46:51.823Z,47.55
2019-02-14T02:49:41.081Z,47.95
2019-02-14T02:52:30.474Z,47.88
2019-02-14T02:55:19.437Z,45.48
2019-02-14T02:58:08.805Z,43.52
2019-02-14T03:00:58.397Z,45.08
2019-02-14T03:03:47.650Z,46.90
2019-02-14T03:06:37.127Z,56.98
2019-02-14T03:09:25.936Z,50.10
2019-02-14T03:12:15.276Z,49.63
2019-02-14T03:15:04.755Z,49.20
2019-02-14T03:17:53.894Z,45.38
2019-02-14T03:20:43.124Z,47.00
2019-02-14T03:23:31.825Z,52.13
2019-02-14T03:26:21.394Z,51.45
2019-02-14T03:29:10.511Z,52.50
2019-02-14T03:31:59.421Z,48.30
2019-02-14T03:34:48.820Z,50.35
2019-02-14T03:37:38.981Z,56.50
2019-02-14T03:40:27.919Z,45.08
2019-02-14T03:43:16.608Z,48.17
2019-02-14T03:46:05.548Z,49.45
2019-02-14T03:48:54.941Z,51.50
2019-02-14T03:51:44.422Z,47.25
2019-02-14T03:54:33.166Z,50.08
2019-02-14T03:57:22.744Z,57.45
2019-02-14T04:00:18.238Z,50.17
2019-02-14T04:03:07.689Z,52.93
2019-02-14T04:05:56.507Z,49.83
2019-02-14T04:08:45.046Z,53.50
2019-02-14T04:11:33.970Z,53.73
2019-02-14T04:14:23.195Z,50.15
2019-02-14T04:17:12.646Z,49.40
2019-02-14T04:20:02.104Z,52.93
2019-02-14T04:22:51.595Z,53.87
2019-02-14T04:25:40.882Z,54.63
2019-02-14T04:28:30.438Z,60.15
2019-02-14T04:31:18.940Z,52.38
2019-02-14T04:34:08.061Z,50.05
2019-02-14T04:36:57.842Z,52.67
2019-02-14T04:39:48.731Z,56.70
2019-02-14T04:42:38.428Z,51.70
2019-02-14T04:45:27.286Z,52.17
2019-02-14T04:48:16.835Z,51.60
2019-02-14T04:51:06.236Z,48.68
2019-02-14T04:53:55.911Z,44.83
2019-02-14T04:56:45.452Z,57.00
2019-02-14T04:59:34.541Z,53.17
2019-02-14T05:02:23.624Z,49.45
2019-02-14T05:05:12.601Z,53.80
2019-02-14T05:08:01.743Z,47.75
2019-02-14T05:10:50.369Z,49.73
2019-02-14T05:13:39.164Z,50.95
2019-02-14T05:16:27.980Z,52.05
2019-02-14T05:19:17.696Z,54.83
2019-02-14T05:22:07.380Z,50.63
2019-02-14T05:24:56.414Z,52.03
2019-02-14T05:27:45.614Z,51.02
2019-02-14T05:30:34.049Z,50.40
2019-02-14T05:33:23.436Z,47.17
2019-02-14T05:36:12.559Z,50.85
2019-02-14T05:39:01.257Z,55.92
2019-02-14T05:41:50.430Z,52.48
2019-02-14T05:44:39.267Z,57.95
2019-02-14T05:47:28.847Z,52.88
2019-02-14T05:50:17.775Z,58.28
2019-02-14T05:53:07.006Z,51.30
2019-02-14T05:55:56.285Z,55.17
2019-02-14T05:58:45.728Z,69.82
2019-02-14T06:01:34.867Z,52.45
2019-02-14T06:04:23.653Z,58.42
2019-02-14T06:07:12.511Z,52.48
2019-02-14T06:10:01.504Z,60.00
2019-02-14T06:12:50.246Z,54.90
2019-02-14T06:15:39.492Z,57.98
2019-02-14T06:18:28.775Z,52.23
2019-02-14T06:21:17.753Z,55.43
2019-02-14T06:24:06.594Z,52.08
2019-02-14T06:26:55.619Z,52.27
2019-02-14T06:29:44.725Z,53.52
2019-02-14T06:32:34.202Z,50.85
2019-02-14T06:35:23.351Z,62.50
2019-02-14T06:38:12.742Z,70.03
2019-02-14T06:41:03.632Z,58.00
2019-02-14T06:43:52.910Z,57.88
2019-02-14T06:46:41.930Z,56.13
2019-02-14T06:49:31.314Z,59.33
2019-02-14T06:52:20.213Z,52.58
2019-02-14T06:55:10.199Z,50.35
2019-02-14T06:57:59.774Z,50.03
2019-02-14T07:00:48.296Z,53.68
2019-02-14T07:03:37.589Z,55.30
2019-02-14T07:06:27.000Z,63.15
2019-02-14T07:09:15.925Z,55.65
2019-02-14T07:12:04.862Z,55.52
2019-02-14T07:14:54.158Z,53.25
2019-02-14T07:17:42.826Z,49.35
2019-02-14T07:20:31.953Z,54.58
2019-02-14T07:23:20.677Z,53.17
2019-02-14T07:26:09.586Z,49.53
2019-02-14T07:28:58.355Z,50.63
2019-02-14T07:31:47.407Z,55.85
2019-02-14T07:34:36.583Z,52.23
2019-02-14T07:37:27.019Z,53.48
2019-02-14T07:40:16.758Z,53.83
2019-02-14T07:43:06.034Z,57.43
2019-02-14T07:45:54.889Z,52.40
2019-02-14T07:48:43.755Z,54.00
2019-02-14T07:51:33.143Z,48.85
2019-02-14T07:54:22.599Z,50.45
2019-02-14T07:57:11.729Z,50.05
2019-02-14T08:00:01.339Z,53.90
2019-02-14T08:02:50.303Z,46.48
2019-02-14T08:05:38.869Z,51.18
2019-02-14T08:08:28.432Z,51.20
2019-02-14T08:11:17.352Z,55.40
2019-02-14T08:14:06.664Z,49.63
2019-02-14T08:16:55.100Z,56.13
2019-02-14T08:19:44.080Z,51.77
2019-02-14T08:22:33.353Z,47.00
2019-02-14T08:25:22.466Z,58.28
2019-02-14T08:28:11.784Z,55.63
2019-02-14T08:31:00.202Z,48.15
2019-02-14T08:33:49.608Z,51.25
2019-02-14T08:36:38.633Z,45.95
2019-02-14T08:39:27.836Z,50.50
2019-02-14T08:42:17.020Z,49.13
2019-02-14T08:45:10.456Z,48.42
2019-02-14T08:47:59.163Z,52.40
2019-02-14T08:50:47.923Z,48.45
2019-02-14T08:53:36.664Z,47.55
2019-02-14T08:56:25.728Z,51.18
2019-02-14T08:59:14.567Z,43.75
2019-02-14T09:02:04.061Z,47.08
2019-02-14T09:04:53.420Z,42.67
2019-02-14T09:07:42.459Z,45.08
2019-02-14T09:10:32.435Z,47.78
2019-02-14T09:13:21.836Z,46.88
2019-02-14T09:16:10.668Z,46.37
2019-02-14T09:19:00.211Z,49.58
2019-02-14T09:21:49.044Z,49.85
2019-02-14T09:24:37.792Z,48.87
2019-02-14T09:27:26.516Z,49.95
2019-02-14T09:30:16.532Z,51.75
2019-02-14T09:33:05.696Z,45.52
2019-02-14T09:35:54.939Z,49.08
2019-02-14T09:38:43.936Z,46.63
2019-02-14T09:41:33.343Z,49.67
2019-02-14T09:44:22.778Z,53.38
2019-02-14T09:47:11.940Z,51.63
2019-02-14T09:50:01.109Z,53.02
2019-02-14T09:52:50.338Z,45.92
2019-02-14T09:55:39.922Z,48.95
2019-02-14T09:58:29.199Z,50.85
2019-02-14T10:01:18.229Z,59.00
2019-02-14T10:04:07.670Z,48.45
2019-02-14T10:06:56.527Z,47.95
2019-02-14T10:09:46.403Z,52.98
2019-02-14T10:12:35.485Z,45.33
2019-02-14T10:15:24.434Z,50.80
2019-02-14T10:18:13.600Z,43.85
2019-02-14T10:21:02.706Z,46.28
2019-02-14T10:23:52.090Z,49.70
2019-02-14T10:26:40.856Z,49.33
2019-02-14T10:29:30.160Z,55.20
2019-02-14T10:32:19.519Z,51.13
2019-02-14T10:35:09.010Z,48.33
2019-02-14T10:37:57.949Z,41.58
2019-02-14T10:40:47.444Z,46.63
2019-02-14T10:43:37.122Z,43.30
2019-02-14T10:46:26.522Z,44.88
2019-02-14T10:49:15.651Z,44.30
2019-02-14T10:52:04.443Z,41.23
2019-02-14T10:54:53.896Z,48.83
2019-02-14T10:57:43.175Z,44.53
2019-02-14T11:00:32.329Z,48.02
2019-02-14T11:03:21.705Z,42.88
2019-02-14T11:06:10.924Z,48.05
2019-02-14T11:09:00.244Z,43.00
2019-02-14T11:11:48.822Z,46.20
2019-02-14T11:14:38.492Z,55.08
2019-02-14T11:17:27.763Z,47.20
2019-02-14T11:20:18.018Z,42.33
2019-02-14T11:23:07.160Z,54.70
2019-02-14T11:25:56.267Z,49.42
2019-02-14T11:28:45.026Z,41.30
2019-02-14T11:31:34.775Z,40.08
2019-02-14T11:34:24.694Z,48.23
2019-02-14T11:37:13.760Z,35.95
2019-02-14T11:40:03.138Z,42.13
2019-02-14T11:42:52.724Z,43.70
2019-02-14T11:45:41.978Z,41.13
2019-02-14T11:48:31.075Z,42.67
2019-02-14T11:51:20.105Z,31.70
2019-02-14T11:54:09.680Z,38.25
2019-02-14T11:56:58.878Z,34.83
2019-02-14T11:59:48.115Z,38.58
2019-02-14T12:02:37.933Z,37.30
2019-02-14T12:05:27.986Z,36.60
2019-02-14T12:08:17.088Z,38.00
2019-02-14T12:11:06.527Z,35.88
2019-02-14T12:13:55.795Z,25.52
2019-02-14T12:16:44.951Z,32.60
2019-02-14T12:19:34.446Z,31.75
2019-02-14T12:22:23.926Z,28.52
2019-02-14T12:25:20.662Z,30.65
2019-02-14T12:28:09.187Z,30.10
2019-02-14T12:36:35.433Z,23.80
2019-02-14T12:42:13.140Z,25.40
2019-02-14T12:45:02.670Z,27.27
2019-02-14T12:47:51.642Z,24.83
2019-02-14T12:53:28.977Z,26.45
2019-02-14T12:56:18.215Z,28.40
2019-02-14T12:59:07.895Z,24.18
2019-02-14T13:01:57.263Z,24.05
2019-02-14T13:04:47.125Z,19.80
2019-02-14T13:07:36.200Z,26.00
2019-02-14T13:10:25.289Z,24.90
2019-02-14T13:13:14.226Z,21.10
2019-02-14T13:16:03.108Z,20.40
2019-02-14T15:25:26.608Z,13.60
2019-02-14T15:33:52.029Z,16.00
2019-02-14T15:36:41.484Z,21.20
2019-02-14T15:39:30.533Z,17.50
2019-02-14T15:42:20.240Z,13.93
2019-02-14T15:45:10.030Z,26.60
2019-02-14T15:47:59.024Z,18.45
2019-02-14T15:50:48.039Z,15.68
2019-02-14T15:53:37.338Z,15.90
2019-02-14T15:56:27.283Z,18.50
2019-02-14T15:59:18.917Z,16.83
2019-02-14T16:02:08.460Z,17.27
2019-02-14T16:04:58.072Z,18.65
2019-02-14T16:07:47.424Z,19.07
2019-02-14T16:10:36.510Z,18.42
2019-02-14T16:13:25.381Z,19.07
2019-02-14T16:16:14.844Z,16.15
2019-02-14T16:19:03.841Z,18.45
2019-02-14T16:21:54.349Z,18.77
2019-02-14T16:24:44.583Z,21.87
2019-02-14T16:27:33.766Z,17.27
2019-02-14T16:30:22.934Z,18.90
2019-02-14T16:33:11.450Z,20.30
2019-02-14T16:36:00.643Z,16.00
2019-02-14T16:38:49.471Z,17.80
2019-02-14T16:41:38.983Z,18.23
2019-02-14T16:44:28.444Z,19.15
2019-02-14T16:47:17.827Z,15.63
2019-02-14T16:50:11.157Z,18.00
2019-02-14T16:53:00.102Z,18.23
2019-02-14T16:55:49.836Z,22.25
2019-02-14T16:58:39.234Z,18.92
2019-02-14T17:01:28.667Z,19.23
2019-02-14T17:04:18.874Z,20.32
2019-02-14T17:07:08.039Z,18.45
2019-02-14T17:09:57.150Z,21.35
2019-02-14T17:12:46.480Z,17.17
2019-02-14T17:15:35.743Z,18.02
2019-02-14T17:18:25.003Z,18.12
2019-02-14T17:21:14.285Z,18.30
2019-02-14T17:24:03.387Z,19.35
2019-02-14T17:26:52.218Z,17.77
2019-02-14T17:29:41.287Z,17.55
2019-02-14T17:32:30.849Z,21.70
2019-02-14T17:35:19.921Z,22.40
2019-02-14T17:38:08.394Z,17.75
2019-02-14T17:40:57.538Z,16.40
2019-02-14T17:43:46.112Z,18.12
2019-02-14T17:46:35.554Z,21.48
2019-02-14T17:49:24.928Z,22.73
2019-02-14T17:52:14.404Z,20.75
2019-02-14T17:55:03.098Z,23.20
2019-02-14T17:57:52.333Z,22.35
2019-02-14T18:00:42.325Z,22.37
2019-02-14T18:03:31.352Z,22.07
2019-02-14T18:06:20.339Z,21.55
2019-02-14T18:09:09.477Z,19.35
2019-02-14T18:11:58.567Z,20.43
2019-02-14T18:14:47.215Z,17.77
2019-02-14T18:17:36.292Z,18.90
2019-02-14T18:20:25.856Z,19.17
2019-02-14T18:23:14.706Z,20.30
2019-02-14T18:26:03.798Z,21.20
2019-02-14T18:28:52.878Z,23.45
2019-02-14T18:31:42.326Z,17.77
2019-02-14T18:34:31.990Z,20.97
2019-02-14T18:37:22.820Z,20.43
2019-02-14T18:40:13.097Z,21.12
2019-02-14T18:43:02.787Z,19.55
2019-02-14T18:45:52.356Z,26.12
2019-02-14T18:48:41.636Z,17.42
2019-02-14T18:51:30.501Z,18.27
2019-02-14T18:54:19.574Z,22.65
2019-02-14T18:57:08.247Z,19.87
2019-02-14T18:59:57.397Z,26.42
2019-02-14T19:02:46.232Z,22.40
2019-02-14T19:05:35.325Z,21.65
2019-02-14T19:08:24.597Z,19.75
2019-02-14T19:11:15.414Z,19.25
2019-02-14T19:14:05.403Z,17.82
2019-02-14T19:16:54.843Z,19.10
2019-02-14T19:19:43.442Z,18.87
2019-02-14T19:22:32.771Z,20.82
2019-02-14T19:25:21.397Z,23.10
2019-02-14T19:28:10.620Z,20.70
2019-02-14T19:30:59.650Z,46.65
2019-02-14T19:33:49.143Z,16.97
2019-02-14T19:36:38.706Z,26.97
2019-02-14T19:39:27.948Z,27.60
2019-02-14T19:42:17.445Z,20.23
2019-02-14T19:45:12.002Z,22.50
2019-02-14T19:48:01.517Z,19.67
2019-02-14T19:50:52.608Z,21.85
2019-02-14T19:53:41.995Z,18.02
2019-02-14T19:56:31.408Z,22.22
2019-02-14T19:59:20.538Z,18.85
2019-02-14T20:02:10.020Z,22.40
2019-02-14T20:04:59.257Z,20.95
2019-02-14T20:07:48.651Z,23.87
2019-02-14T20:10:37.558Z,23.98
2019-02-14T20:13:26.816Z,19.98
2019-02-14T20:16:15.775Z,21.00
2019-02-14T20:19:05.154Z,22.77
2019-02-14T20:21:53.573Z,25.95
2019-02-14T20:24:42.752Z,24.20
2019-02-14T20:27:32.432Z,21.40
2019-02-14T20:30:21.340Z,18.02
2019-02-14T20:33:10.235Z,27.10
2019-02-14T20:35:59.389Z,29.80
2019-02-14T20:38:48.567Z,24.15
2019-02-14T20:41:45.324Z,25.02
2019-02-14T20:44:29.262Z,22.48
2019-02-14T20:47:18.936Z,30.55
2019-02-14T20:50:13.969Z,19.05
2019-02-14T20:53:03.136Z,22.42
2019-02-14T20:55:52.050Z,21.68
2019-02-14T20:58:43.289Z,23.80
2019-02-14T21:01:32.175Z,34.45
2019-02-14T21:04:22.953Z,19.48
2019-02-14T21:07:12.305Z,35.92
2019-02-14T21:10:03.439Z,25.37
2019-02-14T21:12:52.395Z,18.55
2019-02-14T21:15:41.426Z,22.32
2019-02-14T21:18:30.728Z,26.80
2019-02-14T21:21:19.696Z,29.52
2019-02-14T21:24:08.970Z,22.58
2019-02-14T21:26:58.047Z,27.45
2019-02-14T21:29:47.381Z,21.23
2019-02-14T21:32:36.601Z,23.22
2019-02-14T21:35:25.268Z,17.75
2019-02-14T21:38:15.226Z,17.32
2019-02-14T21:41:04.288Z,69.82
2019-02-14T21:43:53.655Z,19.07
2019-02-14T21:46:42.994Z,18.98
2019-02-14T21:49:32.705Z,18.62
2019-02-14T21:52:22.123Z,18.60
2019-02-14T21:55:13.519Z,21.57
2019-02-14T21:58:05.593Z,20.15
2019-02-14T22:00:55.513Z,18.75
2019-02-14T22:03:44.867Z,24.00
2019-02-14T22:06:34.114Z,19.17
2019-02-14T22:09:23.419Z,21.82
2019-02-14T22:12:12.801Z,18.23
2019-02-14T22:15:02.035Z,20.57
2019-02-14T22:17:51.180Z,22.58
2019-02-14T22:20:40.087Z,20.30
2019-02-14T22:23:29.464Z,21.45
2019-02-14T22:26:18.512Z,27.10
2019-02-14T22:29:07.708Z,26.12
2019-02-14T22:31:57.370Z,33.08
2019-02-14T22:34:47.354Z,27.05
2019-02-14T22:37:36.581Z,26.97
2019-02-14T22:40:26.122Z,24.40
2019-02-14T22:43:15.244Z,21.10
2019-02-14T22:46:04.126Z,22.15
2019-02-14T22:48:52.840Z,21.02
2019-02-14T22:51:42.061Z,17.75
2019-02-14T22:54:31.231Z,22.65
2019-02-14T22:57:20.061Z,24.12
2019-02-14T23:00:32.473Z,29.37
2019-02-14T23:03:21.578Z,21.33
2019-02-14T23:06:10.927Z,21.73
2019-02-14T23:08:59.923Z,25.65
2019-02-14T23:11:49.161Z,32.48
2019-02-14T23:14:38.325Z,24.40
2019-02-14T23:17:27.466Z,22.22
2019-02-14T23:20:16.058Z,21.87
2019-02-14T23:23:04.534Z,21.15
2019-02-14T23:25:53.870Z,17.25
2019-02-14T23:28:43.204Z,22.52
2019-02-14T23:31:32.611Z,21.40
2019-02-14T23:34:21.984Z,21.97
2019-02-14T23:37:11.058Z,24.35
2019-02-14T23:40:00.312Z,20.23
2019-02-14T23:42:49.068Z,29.50
2019-02-14T23:45:38.142Z,21.50
2019-02-14T23:48:27.506Z,20.12
2019-02-14T23:51:16.792Z,30.05
2019-02-14T23:54:05.725Z,20.57
2019-02-14T23:56:54.914Z,25.43
2019-02-14T23:59:43.972Z,19.65
